createdAt,value
2017-07-28T00:00:11.835Z,6.87
2017-07-28T00:05:13.586Z,8.40
2017-07-28T00:10:15.314Z,7.87
2017-07-28T00:15:17.065Z,9.60
2017-07-28T00:20:18.849Z,8.43
2017-07-28T00:25:20.563Z,8.30
2017-07-28T00:30:22.361Z,9.40
2017-07-28T00:35:24.063Z,8.57
2017-07-28T00:40:26.605Z,8.80
2017-07-28T00:45:28.381Z,8.73
2017-07-28T00:50:30.122Z,7.93
2017-07-28T00:55:31.865Z,8.77
2017-07-28T01:00:33.606Z,9.70
2017-07-28T01:05:36.003Z,9.10
2017-07-28T01:10:38.185Z,8.40
2017-07-28T01:15:40.759Z,9.00
2017-07-28T01:20:43.867Z,9.30
2017-07-28T01:25:45.980Z,8.70
2017-07-28T01:30:56.936Z,8.97
2017-07-28T01:36:00.036Z,9.27
2017-07-28T01:41:02.516Z,9.07
2017-07-28T01:46:04.263Z,8.83
2017-07-28T01:51:06.063Z,6.70
2017-07-28T01:56:07.815Z,7.33
2017-07-28T02:01:09.619Z,7.53
2017-07-28T02:06:11.401Z,7.37
2017-07-28T02:11:13.167Z,7.30
2017-07-28T02:16:14.936Z,6.70
2017-07-28T02:21:16.668Z,8.40
2017-07-28T02:26:18.413Z,7.37
2017-07-28T02:31:20.160Z,7.33
2017-07-28T02:36:21.875Z,7.60
2017-07-28T02:41:24.019Z,7.23
2017-07-28T02:46:25.979Z,7.43
2017-07-28T02:51:27.715Z,9.27
2017-07-28T02:56:29.530Z,7.47
2017-07-28T03:01:32.113Z,8.23
2017-07-28T03:06:34.637Z,10.27
2017-07-28T03:11:36.439Z,10.37
2017-07-28T03:16:38.234Z,10.03
2017-07-28T03:21:40.001Z,10.40
2017-07-28T03:26:41.699Z,11.53
2017-07-28T03:31:43.498Z,10.90
2017-07-28T03:36:45.353Z,11.37
2017-07-28T03:41:47.126Z,12.17
2017-07-28T03:46:48.868Z,11.10
2017-07-28T03:51:50.666Z,12.03
2017-07-28T03:56:52.397Z,12.20
2017-07-28T04:01:54.129Z,12.10
2017-07-28T04:06:56.578Z,11.93
2017-07-28T04:11:58.336Z,11.63
2017-07-28T04:17:00.862Z,10.50
2017-07-28T04:22:02.599Z,10.80
2017-07-28T04:27:04.369Z,9.23
2017-07-28T04:32:06.103Z,10.30
2017-07-28T04:37:07.856Z,9.67
2017-07-28T04:42:09.590Z,9.20
2017-07-28T04:47:11.345Z,10.93
2017-07-28T04:52:13.124Z,10.67
2017-07-28T04:57:15.637Z,11.33
2017-07-28T05:02:17.399Z,11.10
2017-07-28T05:07:19.286Z,11.40
2017-07-28T05:12:21.057Z,11.90
2017-07-28T05:17:22.782Z,11.47
2017-07-28T05:22:24.547Z,11.80
2017-07-28T05:27:26.302Z,11.30
2017-07-28T05:32:28.805Z,11.43
2017-07-28T05:37:30.557Z,11.73
2017-07-28T05:42:32.349Z,11.50
2017-07-28T05:47:34.110Z,12.13
2017-07-28T05:52:37.522Z,11.67
2017-07-28T05:57:39.314Z,10.80
2017-07-28T06:02:41.052Z,10.90
2017-07-28T06:07:42.872Z,9.17
2017-07-28T06:12:44.712Z,8.93
2017-07-28T06:17:46.577Z,8.03
2017-07-28T06:22:48.355Z,7.87
2017-07-28T06:27:50.148Z,7.67
2017-07-28T06:32:51.923Z,6.77
2017-07-28T06:37:53.680Z,6.43
2017-07-28T06:42:55.663Z,7.23
2017-07-28T06:47:57.438Z,7.13
2017-07-28T06:52:59.230Z,7.83
2017-07-28T06:58:00.965Z,7.70
2017-07-28T07:03:04.336Z,7.23
2017-07-28T07:08:06.897Z,8.70
2017-07-28T07:13:08.715Z,7.87
2017-07-28T07:18:14.842Z,10.37
2017-07-28T07:23:16.713Z,9.77
2017-07-28T07:28:19.350Z,8.00
2017-07-28T07:33:21.123Z,8.10
2017-07-28T07:38:24.596Z,8.30
2017-07-28T07:43:26.772Z,8.33
2017-07-28T07:48:28.543Z,7.97
2017-07-28T07:53:32.749Z,7.13
2017-07-28T07:58:43.834Z,7.30
2017-07-28T08:03:47.634Z,6.67
2017-07-28T08:08:49.683Z,6.47
2017-07-28T08:13:54.029Z,8.80
2017-07-28T08:18:57.269Z,7.03
2017-07-28T08:24:00.253Z,7.30
2017-07-28T08:29:02.895Z,7.47
2017-07-28T08:34:05.233Z,6.90
2017-07-28T08:39:10.123Z,6.97
2017-07-28T08:44:12.793Z,7.00
2017-07-28T08:49:15.475Z,7.07
2017-07-28T08:54:29.589Z,7.63
2017-07-28T08:59:31.912Z,8.07
2017-07-28T09:04:38.621Z,8.03
2017-07-28T09:09:41.518Z,8.20
2017-07-28T09:14:43.443Z,9.70
2017-07-28T09:19:45.347Z,9.33
2017-07-28T09:24:53.180Z,8.60
2017-07-28T09:29:55.049Z,9.43
2017-07-28T09:35:03.006Z,8.77
2017-07-28T09:40:13.544Z,10.93
2017-07-28T09:45:22.912Z,11.03
2017-07-28T09:50:25.727Z,10.50
2017-07-28T09:55:28.070Z,9.50
2017-07-28T10:00:29.843Z,10.00
2017-07-28T10:05:32.239Z,9.30
2017-07-28T10:10:34.719Z,9.40
2017-07-28T10:15:37.442Z,7.07
2017-07-28T10:20:40.349Z,7.20
2017-07-28T10:25:44.094Z,7.83
2017-07-28T10:30:46.425Z,7.70
2017-07-28T10:35:49.020Z,7.43
2017-07-28T10:40:53.118Z,6.20
2017-07-28T10:45:55.791Z,6.50
2017-07-28T10:50:58.188Z,6.27
2017-07-28T10:56:00.359Z,6.17
2017-07-28T11:01:03.061Z,6.07
2017-07-28T11:06:05.054Z,4.77
2017-07-28T11:11:07.377Z,5.03
2017-07-28T11:16:09.415Z,3.73
2017-07-28T11:21:12.620Z,4.13
2017-07-28T11:26:14.895Z,3.50
2017-07-28T11:31:17.330Z,3.60
2017-07-28T11:36:19.110Z,2.93
2017-07-28T11:41:20.868Z,4.27
2017-07-28T11:46:22.611Z,2.90
2017-07-28T11:51:29.576Z,3.00
2017-07-28T11:56:31.302Z,2.93
2017-07-28T12:01:33.145Z,3.37
2017-07-28T12:06:35.838Z,3.30
2017-07-28T12:11:37.632Z,2.70
2017-07-28T12:16:40.182Z,2.40
2017-07-28T12:21:43.757Z,2.13
2017-07-28T12:26:46.088Z,2.23
2017-07-28T12:31:49.252Z,1.53
2017-07-28T12:36:52.209Z,1.90
2017-07-28T12:41:54.264Z,1.97
2017-07-28T12:46:56.496Z,1.90
2017-07-28T12:51:58.273Z,1.63
2017-07-28T12:57:00.015Z,2.10
2017-07-28T13:02:02.372Z,2.00
2017-07-28T13:07:04.108Z,1.90
2017-07-28T13:12:05.849Z,2.30
2017-07-28T13:17:07.596Z,2.10
2017-07-28T13:22:09.385Z,2.00
2017-07-28T13:27:11.090Z,3.00
2017-07-28T13:32:12.911Z,2.23
2017-07-28T13:37:14.872Z,2.70
2017-07-28T13:42:16.626Z,1.77
2017-07-28T13:47:18.391Z,1.57
2017-07-28T13:52:20.337Z,1.20
2017-07-28T13:57:22.151Z,1.50
2017-07-28T14:02:23.896Z,2.07
2017-07-28T14:07:25.692Z,1.50
2017-07-28T14:12:27.473Z,1.97
2017-07-28T14:17:30.035Z,1.83
2017-07-28T14:22:31.765Z,1.70
2017-07-28T14:27:33.507Z,1.50
2017-07-28T14:32:35.240Z,2.17
2017-07-28T14:37:36.970Z,1.67
2017-07-28T14:42:38.746Z,2.00
2017-07-28T14:47:40.498Z,2.37
2017-07-28T14:52:42.272Z,1.90
2017-07-28T14:57:44.092Z,1.80
2017-07-28T15:02:45.884Z,2.30
2017-07-28T15:07:47.662Z,2.87
2017-07-28T15:12:50.240Z,2.67
2017-07-28T15:17:51.961Z,2.10
2017-07-28T15:22:56.564Z,1.90
2017-07-28T15:27:58.558Z,2.10
2017-07-28T15:33:00.959Z,2.13
2017-07-28T15:38:02.826Z,2.20
2017-07-28T15:43:04.719Z,2.17
2017-07-28T15:48:06.452Z,2.80
2017-07-28T15:53:08.187Z,2.27
2017-07-28T15:58:10.203Z,2.63
2017-07-28T16:03:11.964Z,1.90
2017-07-28T16:08:13.733Z,2.47
2017-07-28T16:13:15.495Z,2.20
2017-07-28T16:18:17.982Z,2.20
2017-07-28T16:23:19.715Z,2.17
2017-07-28T16:28:21.680Z,1.70
2017-07-28T16:33:38.340Z,2.40
2017-07-28T16:38:40.206Z,2.23
2017-07-28T16:43:42.098Z,2.70
2017-07-28T16:48:43.831Z,2.83
2017-07-28T16:53:45.580Z,1.90
2017-07-28T16:58:47.314Z,2.00
2017-07-28T17:03:49.096Z,2.13
2017-07-28T17:08:51.783Z,2.00
2017-07-28T17:13:53.534Z,2.80
2017-07-28T17:18:55.260Z,2.13
2017-07-28T17:23:57.023Z,2.43
2017-07-28T17:28:58.777Z,2.17
2017-07-28T17:34:00.543Z,4.70
2017-07-28T17:39:02.447Z,2.70
2017-07-28T17:44:04.244Z,2.43
2017-07-28T17:49:05.972Z,2.80
2017-07-28T17:54:07.766Z,2.70
2017-07-28T17:59:09.480Z,3.33
2017-07-28T18:04:11.230Z,4.20
2017-07-28T18:09:13.026Z,3.00
2017-07-28T18:14:14.817Z,3.20
2017-07-28T18:19:22.678Z,3.90
2017-07-28T18:24:24.531Z,2.73
2017-07-28T18:29:27.058Z,3.03
2017-07-28T18:34:28.846Z,2.73
2017-07-28T18:39:30.629Z,3.03
2017-07-28T18:44:32.361Z,3.10
2017-07-28T18:49:34.176Z,3.07
2017-07-28T18:54:35.998Z,4.10
2017-07-28T18:59:37.816Z,2.90
2017-07-28T19:04:39.581Z,3.00
2017-07-28T19:09:42.543Z,3.77
2017-07-28T19:14:44.297Z,3.50
2017-07-28T19:19:47.063Z,3.10
2017-07-28T19:24:48.929Z,2.60
2017-07-28T19:29:50.807Z,3.03
2017-07-28T19:34:52.548Z,3.07
2017-07-28T19:39:54.296Z,3.03
2017-07-28T19:44:56.210Z,3.23
2017-07-28T19:49:58.064Z,3.20
2017-07-28T19:54:59.827Z,4.30
2017-07-28T20:00:01.586Z,3.10
2017-07-28T20:05:03.360Z,3.70
2017-07-28T20:10:05.082Z,3.03
2017-07-28T20:15:06.867Z,4.27
2017-07-28T20:20:08.608Z,2.90
2017-07-28T20:25:11.147Z,3.37
2017-07-28T20:30:12.892Z,3.50
2017-07-28T20:35:14.617Z,5.00
2017-07-28T20:40:16.354Z,3.47
2017-07-28T20:45:18.111Z,3.60
2017-07-28T20:50:19.949Z,3.70
2017-07-28T20:55:21.661Z,4.43
2017-07-28T21:00:23.389Z,4.07
2017-07-28T21:05:25.134Z,3.67
2017-07-28T21:10:26.857Z,3.37
2017-07-28T21:15:29.343Z,4.47
2017-07-28T21:20:31.086Z,4.30
2017-07-28T21:25:32.813Z,3.40
2017-07-28T21:30:34.540Z,4.20
2017-07-28T21:35:36.298Z,3.77
2017-07-28T21:40:38.098Z,4.90
2017-07-28T21:45:40.635Z,4.20
2017-07-28T21:50:42.430Z,4.43
2017-07-28T21:55:44.182Z,3.83
2017-07-28T22:00:45.913Z,4.30
2017-07-28T22:05:47.676Z,4.30
2017-07-28T22:10:49.468Z,4.20
2017-07-28T22:15:51.205Z,4.80
2017-07-28T22:20:52.984Z,3.20
2017-07-28T22:25:54.729Z,3.60
2017-07-28T22:30:57.354Z,3.40
2017-07-28T22:35:59.106Z,3.87
2017-07-28T22:41:00.878Z,3.50
2017-07-28T22:46:02.606Z,3.57
2017-07-28T22:56:12.757Z,3.60
2017-07-28T23:01:14.499Z,3.70
2017-07-28T23:06:16.234Z,4.57
2017-07-28T23:11:17.960Z,3.57
2017-07-28T23:16:19.691Z,2.90
2017-07-28T23:21:21.448Z,2.80
2017-07-28T23:26:23.183Z,2.60
2017-07-28T23:31:25.082Z,3.50
2017-07-28T23:36:26.870Z,3.07
2017-07-28T23:41:28.614Z,3.50
2017-07-28T23:46:30.443Z,2.80
2017-07-28T23:51:32.277Z,3.40
2017-07-28T23:56:33.993Z,2.30
